Time;durP1;ratioP1;P1;durP2;ratioP2;P2;SDS_P1;SDS_P2;PMS_P1;PMS_P2;Temp;Humidity;BMP_temperature;BMP_pressure;BME280_temperature;BME280_humidity;BME280_pressure;Samples;Min_cycle;Max_cycle;Signal;HPM_P1;HPM_P2
2021/03/07 00:00:25;;;;;;;12.00;7.50;;;4.90;63.20;;;;;;4953203;28;20477;-78
2021/03/07 00:02:51;;;;;;;9.90;7.25;;;4.80;63.50;;;;;;4969679;28;20031;-79
2021/03/07 00:05:18;;;;;;;10.27;7.45;;;4.90;63.10;;;;;;4961559;28;20027;-81
2021/03/07 00:07:45;;;;;;;11.27;7.10;;;4.90;63.50;;;;;;4962732;28;20022;-78
2021/03/07 00:10:13;;;;;;;10.98;7.78;;;4.80;63.20;;;;;;4962124;28;20031;-78
2021/03/07 00:12:40;;;;;;;9.98;7.20;;;4.90;63.30;;;;;;4961011;28;20033;-78
2021/03/07 00:15:08;;;;;;;10.52;7.65;;;5.00;63.30;;;;;;4957257;28;20079;-78
2021/03/07 00:17:35;;;;;;;11.57;8.35;;;5.20;63.10;;;;;;4952755;29;20437;-78
2021/03/07 00:20:01;;;;;;;11.82;8.77;;;5.10;62.60;;;;;;4952767;29;20023;-78
2021/03/07 00:22:27;;;;;;;12.57;8.27;;;4.80;63.50;;;;;;4952312;29;20030;-76
2021/03/07 00:24:53;;;;;;;12.65;8.00;;;4.70;63.40;;;;;;4964217;28;20110;-77
2021/03/07 00:27:18;;;;;;;10.05;7.45;;;4.80;64.10;;;;;;4970408;28;20039;-79
2021/03/07 00:29:45;;;;;;;11.93;7.95;;;4.90;63.80;;;;;;4970755;28;20030;-80
2021/03/07 00:32:11;;;;;;;11.60;7.13;;;4.70;62.60;;;;;;4971583;28;20027;-77
2021/03/07 00:34:36;;;;;;;10.82;7.45;;;4.70;63.00;;;;;;4972073;28;20089;-78
2021/03/07 00:37:02;;;;;;;10.60;7.28;;;4.90;62.70;;;;;;4971740;28;20102;-80
2021/03/07 00:39:30;;;;;;;10.68;8.00;;;4.70;62.50;;;;;;4972049;28;20034;-79
2021/03/07 00:42:00;;;;;;;10.32;7.20;;;4.80;61.90;;;;;;4971595;28;20019;-79
2021/03/07 00:44:26;;;;;;;11.53;7.47;;;4.70;62.60;;;;;;4973441;28;20366;-80
2021/03/07 00:46:52;;;;;;;10.80;7.60;;;4.90;62.60;;;;;;4957613;28;20081;-80
2021/03/07 00:49:23;;;;;;;11.13;7.78;;;5.00;62.00;;;;;;4974108;28;20030;-79
2021/03/07 00:51:49;;;;;;;9.90;6.85;;;4.80;61.20;;;;;;4975061;28;20038;-76
2021/03/07 00:54:16;;;;;;;8.75;6.47;;;4.70;61.60;;;;;;4975329;28;20044;-79
2021/03/07 00:56:41;;;;;;;9.05;7.35;;;4.70;61.50;;;;;;4975327;28;20062;-79
2021/03/07 00:59:07;;;;;;;9.25;6.63;;;4.60;61.40;;;;;;4975761;28;20059;-78
2021/03/07 01:01:34;;;;;;;9.90;6.53;;;4.60;60.70;;;;;;4974546;28;20031;-77
2021/03/07 01:04:00;;;;;;;9.88;7.18;;;4.80;59.80;;;;;;4975485;28;20030;-78
2021/03/07 01:06:26;;;;;;;8.70;6.40;;;4.70;59.80;;;;;;4974966;28;20089;-77
2021/03/07 01:08:52;;;;;;;9.23;6.47;;;4.50;59.50;;;;;;4975324;28;20066;-76
2021/03/07 01:11:18;;;;;;;9.15;6.50;;;4.70;59.10;;;;;;4974675;28;20034;-76
2021/03/07 01:13:43;;;;;;;8.48;6.50;;;4.70;58.60;;;;;;4975464;28;20030;-76
2021/03/07 01:16:09;;;;;;;10.55;6.75;;;4.70;59.50;;;;;;4974749;28;20054;-76
2021/03/07 01:18:35;;;;;;;8.73;6.85;;;4.70;59.60;;;;;;4974559;28;20027;-76
2021/03/07 01:21:01;;;;;;;8.82;6.63;;;4.60;59.80;;;;;;4974966;28;20088;-75
2021/03/07 01:23:30;;;;;;;10.63;7.22;;;4.70;59.30;;;;;;4974713;28;20461;-75
2021/03/07 01:25:56;;;;;;;8.10;6.35;;;4.80;59.10;;;;;;4957296;28;20032;-76
2021/03/07 01:28:21;;;;;;;10.23;6.95;;;4.60;59.30;;;;;;4955366;29;20082;-76
2021/03/07 01:30:47;;;;;;;8.52;6.32;;;4.80;58.50;;;;;;4954287;29;20028;-78
2021/03/07 01:33:13;;;;;;;8.75;6.10;;;4.90;58.70;;;;;;4955147;29;20602;-78
2021/03/07 01:35:39;;;;;;;9.52;6.30;;;5.10;58.40;;;;;;4954076;29;20397;-76
2021/03/07 01:38:05;;;;;;;12.68;6.93;;;5.30;58.90;;;;;;4954144;29;20027;-78
2021/03/07 01:40:41;;;;;;;9.23;6.78;;;5.20;59.00;;;;;;4954224;29;20031;-78
2021/03/07 01:43:07;;;;;;;9.30;7.03;;;5.20;58.90;;;;;;4953914;29;20473;-78
2021/03/07 01:45:34;;;;;;;8.80;6.30;;;5.10;58.20;;;;;;4955235;29;20047;-77
2021/03/07 01:48:03;;;;;;;10.05;6.55;;;5.10;58.30;;;;;;4955215;29;20027;-76
2021/03/07 01:50:31;;;;;;;8.50;6.43;;;5.00;58.20;;;;;;4955154;29;20034;-77
2021/03/07 01:52:58;;;;;;;9.13;6.22;;;4.90;58.30;;;;;;4937673;29;20389;-76
2021/03/07 01:55:27;;;;;;;10.02;6.50;;;5.00;58.50;;;;;;4954996;28;20035;-78
2021/03/07 01:57:58;;;;;;;9.60;7.00;;;4.80;58.40;;;;;;4954588;29;20019;-78
2021/03/07 02:00:24;;;;;;;10.40;6.32;;;4.90;58.50;;;;;;4954669;29;20143;-78
2021/03/07 02:02:50;;;;;;;9.73;6.28;;;5.00;58.40;;;;;;4953565;29;20389;-77
2021/03/07 02:05:18;;;;;;;7.93;6.20;;;5.00;58.30;;;;;;4955044;29;20502;-77
2021/03/07 02:07:44;;;;;;;7.57;5.95;;;4.90;58.30;;;;;;4954447;29;20019;-79
2021/03/07 02:10:14;;;;;;;8.18;6.00;;;5.00;58.00;;;;;;4955382;29;20038;-78
2021/03/07 02:12:41;;;;;;;7.47;5.95;;;4.60;58.30;;;;;;4954839;29;20034;-79
2021/03/07 02:15:11;;;;;;;8.82;6.40;;;4.70;58.00;;;;;;4953605;29;20377;-80
2021/03/07 02:17:38;;;;;;;8.82;6.43;;;4.80;58.30;;;;;;4954481;29;20038;-78
2021/03/07 02:20:09;;;;;;;9.25;6.35;;;4.70;58.40;;;;;;4954705;29;20385;-77
2021/03/07 02:22:39;;;;;;;7.07;6.38;;;4.70;59.00;;;;;;4954122;28;20432;-77
2021/03/07 02:25:09;;;;;;;9.32;6.82;;;4.60;58.90;;;;;;4964662;28;20417;-78
2021/03/07 02:27:36;;;;;;;8.70;6.40;;;4.70;58.30;;;;;;4973692;28;20381;-79
2021/03/07 02:30:07;;;;;;;10.27;6.53;;;4.60;58.90;;;;;;4973798;28;20027;-81
2021/03/07 02:32:36;;;;;;;8.38;5.75;;;4.40;59.10;;;;;;4973302;28;20366;-76
2021/03/07 02:35:06;;;;;;;9.55;6.50;;;4.50;59.10;;;;;;4974043;28;20038;-80
2021/03/07 02:37:33;;;;;;;10.13;6.05;;;4.60;58.50;;;;;;4973461;28;20030;-77
2021/03/07 02:40:00;;;;;;;8.20;5.88;;;4.60;58.10;;;;;;4956304;28;20039;-77
2021/03/07 02:42:28;;;;;;;7.75;6.10;;;4.70;57.90;;;;;;4973679;28;20034;-78
2021/03/07 02:44:58;;;;;;;8.02;6.35;;;4.60;57.90;;;;;;4973182;28;20043;-78
2021/03/07 02:47:27;;;;;;;8.18;5.78;;;4.50;57.90;;;;;;4974120;28;20061;-80
2021/03/07 02:49:57;;;;;;;6.95;5.03;;;4.60;58.00;;;;;;4972174;28;20065;-79
2021/03/07 02:52:23;;;;;;;9.70;6.10;;;4.60;57.90;;;;;;4956327;28;20031;-80
2021/03/07 02:54:55;;;;;;;7.80;6.43;;;4.60;58.50;;;;;;4968612;28;20042;-78
2021/03/07 02:57:37;;;;;;;7.70;6.20;;;4.40;58.10;;;;;;4955719;28;20041;-77
2021/03/07 03:00:08;;;;;;;8.43;5.85;;;4.40;58.40;;;;;;4940285;28;20069;-78
2021/03/07 03:02:35;;;;;;;7.40;5.68;;;4.10;59.20;;;;;;4972075;28;20022;-78
2021/03/07 03:05:01;;;;;;;7.15;5.72;;;4.20;59.20;;;;;;4973366;28;20023;-77
2021/03/07 03:07:28;;;;;;;6.78;5.55;;;4.20;59.10;;;;;;4973062;28;20090;-80
2021/03/07 03:09:55;;;;;;;9.75;6.18;;;4.30;59.20;;;;;;4973139;28;20027;-79
2021/03/07 03:12:23;;;;;;;8.85;5.28;;;4.40;59.70;;;;;;4973297;28;20030;-79
2021/03/07 03:14:49;;;;;;;7.57;5.60;;;4.40;58.80;;;;;;4973125;28;20536;-79
2021/03/07 03:17:16;;;;;;;7.90;5.90;;;4.40;58.10;;;;;;4973411;28;20102;-80
2021/03/07 03:19:44;;;;;;;7.57;6.10;;;4.50;58.20;;;;;;4972651;28;20416;-79
2021/03/07 03:22:11;;;;;;;8.40;4.93;;;4.40;57.30;;;;;;4973397;28;20022;-78
2021/03/07 03:24:38;;;;;;;7.50;5.82;;;4.30;57.60;;;;;;4967987;28;20023;-79
2021/03/07 03:27:04;;;;;;;7.30;6.18;;;4.30;57.60;;;;;;4953387;29;20094;-77
2021/03/07 03:29:31;;;;;;;6.57;5.40;;;4.40;57.60;;;;;;4953390;29;20015;-75
2021/03/07 03:32:00;;;;;;;6.35;5.35;;;4.40;57.10;;;;;;4953540;29;20027;-76
2021/03/07 03:34:26;;;;;;;8.35;5.60;;;4.40;57.00;;;;;;4951992;29;20034;-78
2021/03/07 03:36:57;;;;;;;7.97;5.60;;;4.40;57.20;;;;;;4953460;29;20031;-79
2021/03/07 03:39:30;;;;;;;6.30;5.13;;;4.40;57.00;;;;;;4952363;29;20447;-77
2021/03/07 03:42:00;;;;;;;6.53;5.10;;;4.40;57.20;;;;;;4952338;28;20043;-77
2021/03/07 03:44:33;;;;;;;6.85;5.38;;;4.40;57.00;;;;;;4942162;28;20051;-78
2021/03/07 03:47:00;;;;;;;7.70;5.55;;;4.30;57.00;;;;;;4933323;29;20039;-77
2021/03/07 03:49:38;;;;;;;8.25;5.13;;;4.20;57.00;;;;;;4917140;29;20086;-77
2021/03/07 03:52:06;;;;;;;8.27;5.70;;;4.30;57.30;;;;;;4934435;29;20430;-77
2021/03/07 03:54:42;;;;;;;7.47;5.85;;;4.30;57.30;;;;;;4917000;29;20512;-78
2021/03/07 03:57:09;;;;;;;7.88;5.65;;;4.30;57.00;;;;;;4934361;29;20115;-76
2021/03/07 03:59:38;;;;;;;9.68;5.82;;;4.30;57.30;;;;;;4934102;29;20023;-78
2021/03/07 04:02:05;;;;;;;7.90;5.65;;;4.40;56.90;;;;;;4934534;29;20027;-77
2021/03/07 04:04:33;;;;;;;6.22;5.43;;;4.30;57.20;;;;;;4933801;29;20032;-76
2021/03/07 04:06:59;;;;;;;6.05;4.93;;;4.40;56.90;;;;;;4917556;29;20090;-78
2021/03/07 04:09:28;;;;;;;6.60;5.32;;;4.40;56.80;;;;;;4933720;29;20024;-76
2021/03/07 04:11:55;;;;;;;7.47;5.70;;;4.30;57.00;;;;;;4934213;29;20020;-78
2021/03/07 04:14:22;;;;;;;8.50;5.30;;;4.20;56.90;;;;;;4934017;29;20039;-78
2021/03/07 04:16:49;;;;;;;6.50;5.20;;;4.20;57.30;;;;;;4933264;29;20090;-78
2021/03/07 04:19:16;;;;;;;6.10;5.50;;;4.20;57.00;;;;;;4934645;29;20024;-76
2021/03/07 04:21:46;;;;;;;7.55;5.07;;;4.20;57.00;;;;;;4936423;29;20028;-78
2021/03/07 04:24:29;;;;;;;;;;;;;;;;;;;;;
2021/03/07 04:26:57;;;;;;;6.38;4.88;;;4.20;57.20;;;;;;4937720;29;20038;-77
2021/03/07 04:29:25;;;;;;;9.48;7.07;;;4.20;57.10;;;;;;4937589;29;20062;-78
2021/03/07 04:31:52;;;;;;;7.70;5.47;;;4.30;57.20;;;;;;4937568;29;20039;-75
2021/03/07 04:34:18;;;;;;;7.65;5.53;;;4.20;57.10;;;;;;4937061;29;20106;-76
2021/03/07 04:36:44;;;;;;;6.55;5.63;;;4.10;57.30;;;;;;4937578;29;20042;-77
2021/03/07 04:39:10;;;;;;;6.78;5.22;;;4.10;57.10;;;;;;4936963;29;20027;-76
2021/03/07 04:41:36;;;;;;;6.63;5.65;;;4.20;57.30;;;;;;4936227;29;20031;-77
2021/03/07 04:44:02;;;;;;;8.00;5.70;;;4.10;57.00;;;;;;4943811;29;20617;-77
2021/03/07 04:46:28;;;;;;;6.25;5.22;;;4.10;57.20;;;;;;4938912;29;20042;-79
2021/03/07 04:48:56;;;;;;;10.23;5.40;;;4.20;57.30;;;;;;4957164;29;20430;-79
2021/03/07 04:51:23;;;;;;;6.57;5.38;;;4.20;57.50;;;;;;4956624;29;20037;-78
2021/03/07 04:53:49;;;;;;;7.82;5.75;;;4.20;57.60;;;;;;4956553;29;20039;-78
2021/03/07 04:56:15;;;;;;;7.75;5.47;;;4.10;57.70;;;;;;4955928;29;20047;-79
2021/03/07 04:58:41;;;;;;;6.63;5.03;;;4.10;57.70;;;;;;4956620;29;20038;-76
2021/03/07 05:01:07;;;;;;;7.45;5.63;;;4.00;57.70;;;;;;4954814;29;20039;-77
2021/03/07 05:03:33;;;;;;;7.43;5.25;;;4.00;58.00;;;;;;4956274;29;20031;-78
2021/03/07 05:06:37;;;;;;;8.50;5.80;;;4.00;58.00;;;;;;4955667;29;20031;-78
2021/03/07 05:09:05;;;;;;;7.20;5.60;;;4.10;57.90;;;;;;4924734;29;20090;-77
2021/03/07 05:11:31;;;;;;;8.40;5.93;;;4.00;57.80;;;;;;4955962;29;20111;-78
2021/03/07 05:13:57;;;;;;;7.22;5.72;;;4.10;58.00;;;;;;4956961;29;20059;-79
2021/03/07 05:16:23;;;;;;;7.90;5.47;;;4.00;57.60;;;;;;4955931;29;20047;-79
2021/03/07 05:18:48;;;;;;;6.57;5.45;;;4.00;57.70;;;;;;4955731;29;20031;-77
2021/03/07 05:21:14;;;;;;;9.50;6.60;;;3.90;57.90;;;;;;4956180;29;20127;-76
2021/03/07 05:23:40;;;;;;;7.50;6.30;;;4.00;57.90;;;;;;4955864;28;20023;-78
2021/03/07 05:26:06;;;;;;;8.68;5.97;;;4.00;58.20;;;;;;4969159;28;20023;-77
2021/03/07 05:28:32;;;;;;;8.23;6.15;;;3.90;58.20;;;;;;4975662;28;20038;-77
2021/03/07 05:30:58;;;;;;;7.68;5.88;;;3.90;58.40;;;;;;4974768;28;20035;-76
2021/03/07 05:33:24;;;;;;;10.07;6.53;;;3.90;58.50;;;;;;4975423;28;20078;-78
2021/03/07 05:35:50;;;;;;;8.93;6.22;;;4.00;58.60;;;;;;4974546;28;20038;-77
2021/03/07 05:38:16;;;;;;;8.18;5.90;;;3.90;58.60;;;;;;4974532;28;20023;-75
2021/03/07 05:40:42;;;;;;;7.93;6.50;;;3.90;59.10;;;;;;4973411;28;20058;-75
2021/03/07 05:43:09;;;;;;;10.32;6.65;;;3.90;58.90;;;;;;4974833;28;20179;-78
2021/03/07 05:45:36;;;;;;;8.50;6.13;;;3.90;58.90;;;;;;4974150;28;20101;-78
2021/03/07 05:48:01;;;;;;;8.30;6.05;;;4.00;59.00;;;;;;4975070;28;20034;-77
2021/03/07 05:50:28;;;;;;;8.60;5.72;;;4.00;58.90;;;;;;4973372;28;20033;-77
2021/03/07 05:52:56;;;;;;;8.27;6.13;;;4.00;59.20;;;;;;4974408;28;20496;-77
2021/03/07 05:55:26;;;;;;;11.50;7.00;;;4.00;59.30;;;;;;4974051;28;20066;-76
2021/03/07 05:57:55;;;;;;;9.70;6.05;;;4.00;59.20;;;;;;4974140;28;20564;-76
2021/03/07 06:00:22;;;;;;;8.88;6.20;;;3.80;59.80;;;;;;4974052;28;20027;-77
2021/03/07 06:02:48;;;;;;;15.10;6.60;;;3.90;60.10;;;;;;4974694;28;20025;-78
2021/03/07 06:05:15;;;;;;;9.50;7.03;;;4.00;59.90;;;;;;4974494;28;20019;-77
2021/03/07 06:07:42;;;;;;;9.70;7.10;;;3.90;60.20;;;;;;4974710;28;20035;-78
2021/03/07 06:10:28;;;;;;;9.15;6.53;;;3.90;59.90;;;;;;4957686;28;20030;-77
2021/03/07 06:13:14;;;;;;;10.23;6.50;;;3.90;59.90;;;;;;4974664;28;20034;-78
2021/03/07 06:15:43;;;;;;;9.68;6.32;;;4.00;60.10;;;;;;4973498;28;20413;-77
2021/03/07 06:18:21;;;;;;;8.43;6.20;;;3.90;59.60;;;;;;4974882;28;20027;-78
2021/03/07 06:20:52;;;;;;;7.78;6.07;;;4.00;59.40;;;;;;4956525;28;20030;-76
2021/03/07 06:23:18;;;;;;;8.40;5.78;;;4.10;59.10;;;;;;4974228;28;20022;-76
2021/03/07 06:25:51;;;;;;;8.55;6.18;;;4.10;58.60;;;;;;4973788;28;20424;-78
2021/03/07 06:28:26;;;;;;;10.35;5.97;;;4.10;58.70;;;;;;4974351;28;20058;-75
2021/03/07 06:30:53;;;;;;;8.63;6.03;;;4.10;59.30;;;;;;4973239;28;20365;-76
2021/03/07 06:33:30;;;;;;;10.55;6.80;;;4.00;59.60;;;;;;4973906;28;20026;-77
2021/03/07 06:36:19;;;;;;;8.15;6.47;;;4.10;61.10;;;;;;4973074;28;20046;-76
2021/03/07 06:38:47;;;;;;;8.85;6.60;;;4.00;61.90;;;;;;4974358;28;20287;-76
2021/03/07 06:41:18;;;;;;;10.18;7.05;;;4.10;61.70;;;;;;4973194;28;20105;-77
2021/03/07 06:43:44;;;;;;;11.88;7.00;;;4.20;62.10;;;;;;4973511;28;20039;-77
2021/03/07 06:46:31;;;;;;;11.05;6.78;;;4.20;62.70;;;;;;4973177;28;20057;-77
2021/03/07 06:48:57;;;;;;;10.15;7.32;;;4.40;62.40;;;;;;4973570;28;20026;-78
2021/03/07 06:51:35;;;;;;;12.80;7.03;;;4.50;62.40;;;;;;4971987;28;20035;-77
2021/03/07 06:54:16;;;;;;;11.55;7.22;;;4.40;62.00;;;;;;4973873;28;20038;-77
2021/03/07 06:56:49;;;;;;;10.20;7.13;;;4.50;62.30;;;;;;4956245;28;20431;-77
2021/03/07 06:59:23;;;;;;;11.27;7.65;;;4.50;62.20;;;;;;4973964;28;20381;-76
2021/03/07 07:01:54;;;;;;;9.90;6.90;;;4.40;62.60;;;;;;4971089;28;20065;-78
2021/03/07 07:04:21;;;;;;;9.95;7.03;;;4.30;62.10;;;;;;4970605;28;20031;-78
2021/03/07 07:07:16;;;;;;;10.48;7.85;;;4.20;62.40;;;;;;4972675;28;20027;-78
2021/03/07 07:09:43;;;;;;;13.23;7.60;;;4.30;62.70;;;;;;4973538;28;20092;-77
2021/03/07 07:12:19;;;;;;;10.05;7.28;;;4.30;62.00;;;;;;4964629;28;20070;-78
2021/03/07 07:14:45;;;;;;;14.18;7.53;;;4.50;62.40;;;;;;4936300;28;20504;-77
2021/03/07 07:17:13;;;;;;;9.20;6.53;;;4.40;61.60;;;;;;4961830;28;20033;-78
2021/03/07 07:19:40;;;;;;;11.05;7.22;;;4.50;61.00;;;;;;4961224;28;20074;-78
2021/03/07 07:22:07;;;;;;;8.80;6.35;;;4.50;61.10;;;;;;4954826;28;20027;-76
2021/03/07 07:24:46;;;;;;;11.15;7.80;;;4.60;60.20;;;;;;4954054;28;20035;-75
2021/03/07 07:27:21;;;;;;;8.80;6.50;;;4.60;60.50;;;;;;4949695;29;20039;-76
2021/03/07 07:29:47;;;;;;;10.52;6.68;;;4.70;60.70;;;;;;4950693;28;20422;-75
2021/03/07 07:32:43;;;;;;;10.52;6.35;;;4.70;60.70;;;;;;4952745;29;20493;-76
2021/03/07 07:35:16;;;;;;;8.40;6.32;;;4.90;59.40;;;;;;4923224;29;20523;-76
2021/03/07 07:37:53;;;;;;;8.43;5.85;;;4.90;58.90;;;;;;4951711;28;20019;-76
2021/03/07 07:40:43;;;;;;;10.30;6.70;;;4.80;58.50;;;;;;4950634;29;20024;-77
2021/03/07 07:43:18;;;;;;;9.60;6.85;;;5.00;58.30;;;;;;4954174;28;20121;-77
2021/03/07 07:45:47;;;;;;;8.43;6.65;;;5.00;57.80;;;;;;4957970;28;20129;-75
2021/03/07 07:48:32;;;;;;;8.55;6.28;;;5.10;57.40;;;;;;4951956;29;20027;-76
2021/03/07 07:51:24;;;;;;;9.48;6.65;;;5.20;57.40;;;;;;4948780;29;20051;-75
2021/03/07 07:53:52;;;;;;;9.35;6.30;;;5.30;56.90;;;;;;4952695;28;20027;-78
2021/03/07 07:56:43;;;;;;;8.90;6.32;;;5.30;56.00;;;;;;4971427;28;20042;-79
2021/03/07 07:59:13;;;;;;;8.02;6.72;;;5.40;55.90;;;;;;4974899;28;20506;-80
2021/03/07 08:01:56;;;;;;;9.43;6.13;;;5.50;56.20;;;;;;4944002;29;20501;-78
2021/03/07 08:04:28;;;;;;;10.30;6.95;;;5.90;55.90;;;;;;4954624;28;20055;-77
2021/03/07 08:07:01;;;;;;;10.23;7.35;;;6.10;55.70;;;;;;4968104;28;20086;-78
2021/03/07 08:09:34;;;;;;;11.80;7.20;;;6.30;55.80;;;;;;4961792;28;20077;-75
2021/03/07 08:12:00;;;;;;;9.90;7.22;;;6.50;56.60;;;;;;4969875;28;20392;-78
2021/03/07 08:14:35;;;;;;;10.27;7.22;;;6.40;56.20;;;;;;4976716;28;20453;-77
2021/03/07 08:17:01;;;;;;;24.83;14.18;;;6.20;58.00;;;;;;4975617;28;20452;-75
2021/03/07 08:19:43;;;;;;;25.35;15.02;;;6.60;60.20;;;;;;4976481;28;20508;-77
2021/03/07 08:22:10;;;;;;;13.75;8.60;;;7.50;58.80;;;;;;4973733;28;20480;-78
2021/03/07 08:24:56;;;;;;;9.73;7.05;;;7.30;55.50;;;;;;4945293;28;20575;-77
2021/03/07 08:27:39;;;;;;;9.95;7.10;;;6.90;55.20;;;;;;4962272;28;20027;-79
2021/03/07 08:30:13;;;;;;;9.95;6.68;;;7.00;54.60;;;;;;4975766;28;20467;-79
2021/03/07 08:32:46;;;;;;;10.60;7.70;;;7.40;55.30;;;;;;4975183;28;20023;-81
2021/03/07 08:35:24;;;;;;;10.82;6.45;;;7.80;54.20;;;;;;4975589;28;20050;-79
2021/03/07 08:38:14;;;;;;;10.77;7.38;;;8.00;53.40;;;;;;4976034;28;20505;-80
2021/03/07 08:40:41;;;;;;;10.65;7.03;;;8.30;53.70;;;;;;4975989;28;20027;-80
2021/03/07 08:43:24;;;;;;;10.52;7.00;;;8.50;52.50;;;;;;4975366;28;20023;-78
2021/03/07 08:46:00;;;;;;;89.35;44.80;;;8.40;53.80;;;;;;4975412;28;20109;-78
2021/03/07 08:48:27;;;;;;;19.20;12.40;;;9.20;52.90;;;;;;4975107;28;20027;-75
2021/03/07 08:50:53;;;;;;;10.90;7.70;;;9.20;51.20;;;;;;4975734;28;20073;-80
2021/03/07 08:53:27;;;;;;;13.38;7.47;;;9.00;51.00;;;;;;4975328;28;20106;-77
2021/03/07 08:55:54;;;;;;;13.63;8.18;;;8.90;51.40;;;;;;4975539;28;20045;-78
2021/03/07 08:58:20;;;;;;;11.70;7.90;;;9.40;50.50;;;;;;4974938;28;20025;-77
2021/03/07 09:00:50;;;;;;;11.82;8.13;;;9.60;49.50;;;;;;4956951;28;20049;-79
2021/03/07 09:03:16;;;;;;;11.90;7.13;;;9.70;49.20;;;;;;4974511;28;20033;-81
2021/03/07 09:05:43;;;;;;;9.98;6.88;;;9.30;49.00;;;;;;4974626;28;20078;-80
2021/03/07 09:08:09;;;;;;;9.98;6.80;;;9.20;49.10;;;;;;4975016;28;20180;-78
2021/03/07 09:10:38;;;;;;;10.60;6.50;;;9.20;49.20;;;;;;4975451;28;20441;-81
2021/03/07 09:13:24;;;;;;;9.48;6.38;;;9.50;48.70;;;;;;4973552;28;20023;-77
2021/03/07 09:15:52;;;;;;;10.68;6.47;;;9.20;48.60;;;;;;4962484;28;20066;-76
2021/03/07 09:18:20;;;;;;;10.00;6.90;;;9.20;48.50;;;;;;4960876;28;20026;-76
2021/03/07 09:20:56;;;;;;;10.55;6.20;;;9.50;48.80;;;;;;4952273;28;20119;-79
2021/03/07 09:23:37;;;;;;;10.73;6.90;;;9.90;48.10;;;;;;4955254;28;20030;-77
2021/03/07 09:26:07;;;;;;;;;;;10.20;47.60;;;;;;4948872;29;20482;-76
2021/03/07 09:28:41;;;;;;;44.00;24.83;;;10.50;50.80;;;;;;4951752;28;19914;-78
2021/03/07 09:31:35;;;;;;;22.75;14.10;;;11.80;49.50;;;;;;4954348;28;20575;-76
2021/03/07 09:34:04;;;;;;;16.50;9.27;;;12.20;46.50;;;;;;4972470;28;20027;-78
2021/03/07 09:36:36;;;;;;;10.30;6.53;;;12.10;47.00;;;;;;4965176;28;20035;-76
2021/03/07 09:39:13;;;;;;;11.75;6.43;;;11.70;46.10;;;;;;4974071;28;20027;-78
2021/03/07 09:41:44;;;;;;;12.75;7.03;;;11.50;46.50;;;;;;4969992;28;20035;-77
2021/03/07 09:44:11;;;;;;;;;;;11.80;47.10;;;;;;4953645;28;20049;-77
2021/03/07 09:46:48;;;;;;;10.15;6.82;;;12.00;46.00;;;;;;4960858;28;19937;-79
2021/03/07 09:49:20;;;;;;;11.55;6.80;;;12.10;46.30;;;;;;4946811;28;20085;-78
2021/03/07 09:51:48;;;;;;;11.77;7.20;;;11.80;45.60;;;;;;4954103;28;20029;-77
2021/03/07 09:54:16;;;;;;;12.20;7.40;;;11.80;46.00;;;;;;4952464;28;20424;-78
2021/03/07 09:56:43;;;;;;;9.82;6.80;;;11.60;45.60;;;;;;4955554;28;20078;-78
2021/03/07 09:59:15;;;;;;;11.27;6.85;;;11.50;45.50;;;;;;4964043;28;20031;-78
2021/03/07 10:01:53;;;;;;;12.65;7.30;;;11.60;46.10;;;;;;4958066;28;20110;-77
2021/03/07 10:04:29;;;;;;;36.85;9.52;;;11.80;48.30;;;;;;4965940;28;20037;-78
2021/03/07 10:06:56;;;;;;;16.23;8.35;;;13.10;48.70;;;;;;4964184;28;20531;-78
2021/03/07 10:09:22;;;;;;;9.00;6.68;;;13.50;46.70;;;;;;4953585;29;20031;-77
2021/03/07 10:11:59;;;;;;;16.58;10.07;;;12.10;43.30;;;;;;4961713;28;20132;-77
2021/03/07 10:14:26;;;;;;;17.17;11.10;;;12.30;45.70;;;;;;4964632;28;20023;-77
2021/03/07 10:16:52;;;;;;;44.40;27.13;;;12.50;45.80;;;;;;4965323;28;20031;-77
2021/03/07 10:19:19;;;;;;;22.08;15.00;;;12.80;48.70;;;;;;4973249;28;20412;-77
2021/03/07 10:21:45;;;;;;;23.05;15.02;;;13.10;44.60;;;;;;4972382;28;20030;-77
2021/03/07 10:24:17;;;;;;;72.53;40.85;;;12.70;45.20;;;;;;4973505;28;20023;-76
2021/03/07 10:26:49;;;;;;;20.80;14.30;;;13.00;46.50;;;;;;4973461;28;20031;-78
2021/03/07 10:29:29;;;;;;;34.70;23.33;;;13.10;45.20;;;;;;4973542;28;20381;-76
2021/03/07 10:32:01;;;;;;;9.55;6.90;;;13.00;44.30;;;;;;4973202;28;20038;-78
2021/03/07 10:34:49;;;;;;;10.70;7.07;;;12.20;43.00;;;;;;4972997;28;20046;-80
2021/03/07 10:37:39;;;;;;;9.85;6.70;;;12.10;43.80;;;;;;4973473;28;20027;-78
2021/03/07 10:40:13;;;;;;;11.10;6.85;;;12.10;44.00;;;;;;4973197;28;20062;-78
2021/03/07 10:42:41;;;;;;;10.90;7.15;;;12.20;44.30;;;;;;4972910;28;20035;-78
2021/03/07 10:45:14;;;;;;;11.65;6.95;;;12.40;43.50;;;;;;4972819;28;20082;-76
2021/03/07 10:47:40;;;;;;;36.65;22.70;;;13.00;44.00;;;;;;4971896;28;20019;-76
2021/03/07 10:50:06;;;;;;;94.20;53.65;;;14.40;45.90;;;;;;4967239;28;20047;-77
2021/03/07 10:52:32;;;;;;;15.50;11.48;;;14.70;43.80;;;;;;4972804;28;20058;-78
2021/03/07 10:54:57;;;;;;;12.68;7.50;;;13.80;41.70;;;;;;4972767;28;20558;-77
2021/03/07 10:57:23;;;;;;;10.35;6.93;;;13.60;42.40;;;;;;4972603;28;20114;-77
2021/03/07 10:59:52;;;;;;;12.68;7.45;;;13.20;42.60;;;;;;4972379;28;20030;-77
2021/03/07 11:02:19;;;;;;;10.90;6.90;;;12.40;43.70;;;;;;4972207;28;20035;-75
2021/03/07 11:04:46;;;;;;;12.45;7.50;;;12.30;43.90;;;;;;4954921;28;20022;-77
2021/03/07 11:07:12;;;;;;;10.82;7.47;;;11.90;44.90;;;;;;4972739;28;20348;-80
2021/03/07 11:09:41;;;;;;;9.35;6.45;;;12.00;43.90;;;;;;4972202;28;20051;-77
2021/03/07 11:12:08;;;;;;;10.13;7.15;;;12.60;44.20;;;;;;4954694;28;20030;-75
2021/03/07 11:14:33;;;;;;;11.10;7.50;;;13.00;43.60;;;;;;4969362;28;20038;-75
2021/03/07 11:16:59;;;;;;;10.32;6.50;;;12.90;43.10;;;;;;4968159;28;20046;-77
2021/03/07 11:19:25;;;;;;;11.05;7.22;;;13.10;43.60;;;;;;4953777;28;20118;-76
2021/03/07 11:21:51;;;;;;;11.05;7.13;;;12.70;43.30;;;;;;4970640;28;20031;-76
2021/03/07 11:24:17;;;;;;;11.63;7.18;;;13.10;43.20;;;;;;4970780;28;20088;-77
2021/03/07 11:26:42;;;;;;;9.60;6.50;;;12.80;43.70;;;;;;4970333;28;20393;-78
2021/03/07 11:29:09;;;;;;;15.20;9.63;;;12.60;44.40;;;;;;4972704;28;20042;-79
2021/03/07 11:31:35;;;;;;;34.13;21.67;;;13.20;45.80;;;;;;4948232;28;20035;-77
2021/03/07 11:34:01;;;;;;;13.02;8.45;;;13.50;47.10;;;;;;4970463;28;20121;-77
2021/03/07 11:36:27;;;;;;;15.77;8.43;;;13.10;43.90;;;;;;4952245;28;20510;-77
2021/03/07 11:38:53;;;;;;;15.68;9.73;;;13.20;44.10;;;;;;4971821;28;20023;-78
2021/03/07 11:41:18;;;;;;;11.00;7.00;;;13.50;45.60;;;;;;4970162;28;20114;-77
2021/03/07 11:43:44;;;;;;;11.25;6.88;;;14.40;42.70;;;;;;4966430;28;20186;-76
2021/03/07 11:46:10;;;;;;;12.15;5.97;;;14.70;46.40;;;;;;4966931;28;20409;-74
2021/03/07 11:48:35;;;;;;;9.05;5.93;;;13.90;45.20;;;;;;4963243;28;20078;-74
2021/03/07 11:51:01;;;;;;;9.85;6.47;;;13.80;43.70;;;;;;4960682;28;20077;-76
2021/03/07 11:53:27;;;;;;;10.48;6.63;;;13.50;42.60;;;;;;4965995;28;20480;-75
2021/03/07 11:55:53;;;;;;;9.25;5.65;;;13.70;43.70;;;;;;4953747;28;20042;-76
2021/03/07 11:58:19;;;;;;;9.57;5.60;;;13.80;43.40;;;;;;4972094;28;20027;-76
2021/03/07 12:00:45;;;;;;;12.02;5.97;;;13.90;43.10;;;;;;4971211;28;20504;-77
2021/03/07 12:03:10;;;;;;;10.95;6.20;;;13.60;42.40;;;;;;4970346;28;20388;-75
2021/03/07 12:05:36;;;;;;;10.18;6.70;;;14.10;42.80;;;;;;4970324;28;20063;-76
2021/03/07 12:08:02;;;;;;;10.68;6.80;;;13.80;41.80;;;;;;4971883;28;20372;-74
2021/03/07 12:10:28;;;;;;;11.38;6.18;;;13.40;42.60;;;;;;4971185;28;20396;-76
2021/03/07 12:12:54;;;;;;;9.82;6.38;;;13.60;42.60;;;;;;4971745;28;20465;-75
2021/03/07 12:15:20;;;;;;;14.00;5.75;;;13.50;42.60;;;;;;4953930;28;20268;-76
2021/03/07 12:17:49;;;;;;;9.75;6.25;;;14.60;43.10;;;;;;4961464;28;20018;-79
2021/03/07 12:20:15;;;;;;;10.10;6.03;;;14.80;42.20;;;;;;4971727;28;20388;-76
2021/03/07 12:22:41;;;;;;;9.50;5.72;;;15.10;42.20;;;;;;4971422;28;20058;-77
2021/03/07 12:25:08;;;;;;;12.25;7.00;;;14.90;41.50;;;;;;4954394;28;20125;-76
2021/03/07 12:27:35;;;;;;;51.20;31.60;;;14.40;42.10;;;;;;4952211;28;20072;-76
2021/03/07 12:30:01;;;;;;;49.75;31.85;;;15.00;42.70;;;;;;4953208;28;20110;-77
2021/03/07 12:32:27;;;;;;;13.80;8.82;;;15.70;42.50;;;;;;4951928;28;20028;-77
2021/03/07 12:34:52;;;;;;;10.23;6.18;;;15.80;42.60;;;;;;4953311;29;20038;-76
2021/03/07 12:37:18;;;;;;;9.23;5.47;;;15.60;43.90;;;;;;4958330;28;20035;-78
2021/03/07 12:39:44;;;;;;;9.40;5.97;;;15.40;42.20;;;;;;4955181;28;20019;-78
2021/03/07 12:42:10;;;;;;;9.30;6.10;;;15.60;44.90;;;;;;4973848;28;20035;-76
2021/03/07 12:44:35;;;;;;;11.32;6.40;;;15.30;43.10;;;;;;4966764;28;20390;-77
2021/03/07 12:47:01;;;;;;;12.68;6.60;;;15.10;48.50;;;;;;4961300;28;20035;-76
2021/03/07 12:49:27;;;;;;;10.93;6.60;;;14.50;49.40;;;;;;4956240;29;20130;-76
2021/03/07 12:51:53;;;;;;;14.43;5.97;;;15.10;45.80;;;;;;4955620;29;20019;-77
2021/03/07 12:54:19;;;;;;;9.65;5.78;;;16.20;46.00;;;;;;4955633;28;20043;-75
2021/03/07 12:56:45;;;;;;;9.55;6.22;;;16.50;44.70;;;;;;4955383;28;20035;-78
2021/03/07 12:59:10;;;;;;;10.27;6.38;;;16.80;43.90;;;;;;4938653;29;20118;-78
2021/03/07 13:01:36;;;;;;;12.40;6.65;;;19.90;40.30;;;;;;4965930;28;20109;-76